メインページ
METAR-TAF:

METAR-TAF

空港 :

マレクラ島, バヌアツ

緯度: 16-27-26S, 経度: 167-49-42E, 海抜: 2m

現時点の気象観測

当レポートは1時間23分前の21:00(UTC)に作成
東/南東の風 8kt
気温 28°C
湿度 70%
気圧 1009 hPa

METAR: NVSL 112100Z AUTO 12008KT //// // NCD 28/22 Q1009 RMK NIL

時間: 09:23 (22:23 UTC)

予報

当レポートは6時間23分前の16:00(UTC)に作成
予報は11日の 12時(UTC)から 12日の 12時(UTC)まで有効
南東の風 8kt
視程10km以上
高度2000ftの雲は散在している

TAF: NVSL 111600Z 1112/1212 13008KT 9999 SCT020

4,000以上の空港の気象観測と天気予報(METAR報とTAF報)

利用可能な観測所は地図上に黄色い丸と赤い丸で示す。

丸の上にカーソルを重ねると観測所名を参照できる。

次にクリックすると気象観測と天気予報を参照できる。

マップの切り替え:黒色「×」印の緑ボタンをクリックして拡大、「-」印の緑ボタンをクリックして縮小、緑色の三角印をクリックして隣りの地図に切り替え


METAR-TAF: